Time;durP1;ratioP1;P1;durP2;ratioP2;P2;SDS_P1;SDS_P2;PMS_P1;PMS_P2;Temp;Humidity;BMP_temperature;BMP_pressure;BME280_temperature;BME280_humidity;BME280_pressure;Samples;Min_cycle;Max_cycle;Signal;HPM_P1;HPM_P2
2022/05/09 00:04:45;;;;;;;60.97;57.27;;;;;;;10.62;100.00;102750.53;1880737;74;86811;-67
2022/05/09 00:10:29;;;;;;;62.30;58.50;;;;;;;10.55;100.00;102742.86;1912355;74;86435;-67
2022/05/09 00:16:13;;;;;;;62.20;58.40;;;;;;;10.48;100.00;102742.95;1983689;71;39607;-69
2022/05/09 00:18:45;;;;;;;63.20;59.40;;;;;;;10.38;100.00;102744.09;1912343;73;936942;-67
2022/05/09 00:24:34;;;;;;;63.80;59.93;;;;;;;10.33;100.00;102741.17;1947183;73;86754;-70
2022/05/09 00:30:19;;;;;;;63.87;60.10;;;;;;;10.36;100.00;102742.08;1968772;71;39618;-67
2022/05/09 00:36:04;;;;;;;63.60;59.80;;;;;;;10.21;100.00;102728.34;1841653;76;86411;-69
2022/05/09 00:41:51;;;;;;;62.30;58.23;;;;;;;10.32;100.00;102729.75;1875229;74;85425;-67
2022/05/09 00:47:37;;;;;;;63.20;59.30;;;;;;;10.22;100.00;102734.20;1801742;77;86344;-67
2022/05/09 00:53:26;;;;;;;62.97;58.97;;;;;;;10.04;100.00;102731.77;1920757;74;86416;-69
2022/05/09 00:59:25;;;;;;;61.50;57.47;;;;;;;9.79;100.00;102731.59;1907696;72;85372;-69
2022/05/09 01:05:12;;;;;;;62.50;58.63;;;;;;;9.72;100.00;102725.27;1933827;71;39790;-67
2022/05/09 01:10:57;;;;;;;62.13;57.83;;;;;;;9.65;100.00;102730.06;1838872;76;86502;-67
2022/05/09 01:16:47;;;;;;;61.30;57.20;;;;;;;9.45;100.00;102727.02;1822950;78;86516;-67
2022/05/09 01:22:43;;;;;;;59.27;55.27;;;;;;;9.37;100.00;102727.87;1890102;75;86543;-66
2022/05/09 01:28:31;;;;;;;59.70;55.80;;;;;;;9.35;100.00;102718.37;1911222;74;85544;-67
2022/05/09 01:34:19;;;;;;;59.17;55.07;;;;;;;9.39;100.00;102722.38;1986129;71;39677;-67
2022/05/09 01:40:08;;;;;;;60.13;55.77;;;;;;;9.25;100.00;102717.20;1848188;76;86439;-67
2022/05/09 01:45:56;;;;;;;58.50;54.53;;;;;;;9.30;100.00;102708.52;1883909;74;86742;-67
2022/05/09 01:51:42;;;;;;;61.03;56.77;;;;;;;9.26;100.00;102706.43;1879687;75;86567;-67
2022/05/09 01:57:28;;;;;;;59.30;55.53;;;;;;;9.53;100.00;102713.36;1911648;74;86602;-66
2022/05/09 02:03:14;;;;;;;62.00;57.97;;;;;;;9.05;100.00;102709.98;1976015;71;39748;-67
2022/05/09 02:08:59;;;;;;;58.50;54.27;;;;;;;9.17;100.00;102698.96;1840697;76;86308;-67
2022/05/09 02:14:43;;;;;;;58.33;54.23;;;;;;;9.30;100.00;102693.80;1883143;75;85728;-66
2022/05/09 02:20:28;;;;;;;60.47;56.27;;;;;;;9.40;100.00;102685.25;1909379;74;86638;-67
2022/05/09 02:26:12;;;;;;;63.47;58.87;;;;;;;9.38;100.00;102678.22;1950986;71;39510;-66
2022/05/09 02:31:57;;;;;;;59.73;55.47;;;;;;;9.44;100.00;102684.24;1848659;76;85451;-67
2022/05/09 02:37:41;;;;;;;59.13;55.20;;;;;;;9.16;100.00;102681.19;1892767;75;86323;-66
2022/05/09 02:43:28;;;;;;;60.57;56.53;;;;;;;9.33;100.00;102668.36;1913939;74;86633;-67
2022/05/09 02:49:13;;;;;;;58.73;54.63;;;;;;;9.01;100.00;102663.00;1979213;71;39521;-67
2022/05/09 02:54:57;;;;;;;58.70;54.63;;;;;;;8.98;100.00;102656.55;1825887;76;85386;-67
2022/05/09 03:00:42;;;;;;;58.67;54.50;;;;;;;8.95;100.00;102645.90;1872130;76;86538;-66
2022/05/09 03:06:27;;;;;;;59.67;55.20;;;;;;;8.76;100.00;102636.44;1917001;74;86479;-66
2022/05/09 03:12:13;;;;;;;60.50;56.30;;;;;;;8.60;100.00;102637.89;1979991;71;39642;-67
2022/05/09 03:17:58;;;;;;;62.00;57.87;;;;;;;8.65;100.00;102642.17;1830913;76;86856;-68
2022/05/09 03:23:42;;;;;;;58.93;54.63;;;;;;;8.71;100.00;102631.58;1870811;75;86503;-70
2022/05/09 03:29:28;;;;;;;62.40;58.03;;;;;;;8.91;100.00;102643.81;1912077;72;86706;-70
2022/05/09 03:35:12;;;;;;;62.73;57.83;;;;;;;8.41;100.00;102629.22;1965979;71;39520;-69
2022/05/09 03:40:59;;;;;;;64.67;60.17;;;;;;;8.74;100.00;102625.56;1819836;76;85887;-69
2022/05/09 03:46:45;;;;;;;65.17;60.47;;;;;;;8.60;100.00;102626.23;1891569;73;86497;-69
2022/05/09 03:52:30;;;;;;;67.27;62.57;;;;;;;8.58;100.00;102633.09;1924356;73;86540;-69
2022/05/09 03:58:14;;;;;;;64.73;60.07;;;;;;;8.37;100.00;102631.60;1979775;71;39613;-68
2022/05/09 04:04:00;;;;;;;63.27;58.63;;;;;;;8.67;100.00;102633.97;1825973;76;86516;-69
2022/05/09 04:09:44;;;;;;;62.77;58.27;;;;;;;8.26;100.00;102639.78;1885245;73;86570;-69
2022/05/09 04:21:33;;;;;;;64.40;59.70;;;;;;;8.41;100.00;102638.91;1804309;77;86696;-69
2022/05/09 04:27:17;;;;;;;64.40;59.10;;;;;;;8.59;100.00;102621.80;1977706;71;39625;-69
2022/05/09 04:33:01;;;;;;;65.90;60.80;;;;;;;8.43;100.00;102611.86;1814648;77;85508;-69
2022/05/09 04:38:50;;;;;;;64.20;59.53;;;;;;;8.50;100.00;102605.70;1881701;74;86554;-69
2022/05/09 04:44:33;;;;;;;65.93;60.83;;;;;;;8.53;100.00;102609.39;1869662;75;86206;-69
2022/05/09 04:50:19;;;;;;;66.50;61.63;;;;;;;8.48;100.00;102598.99;1935826;71;39764;-69
2022/05/09 04:56:06;;;;;;;66.93;62.10;;;;;;;8.52;100.00;102603.53;1859649;76;86647;-68
2022/05/09 05:01:49;;;;;;;65.93;60.77;;;;;;;8.58;100.00;102609.55;1900784;73;86677;-69
2022/05/09 05:04:20;;;;;;;66.67;61.57;;;;;;;8.50;100.00;102605.70;1837999;75;935969;-69
2022/05/09 05:10:07;;;;;;;66.80;61.77;;;;;;;8.87;100.00;102596.86;1843416;76;85722;-69
2022/05/09 05:15:53;;;;;;;67.43;62.20;;;;;;;8.92;100.00;102603.95;1809687;78;86461;-68
2022/05/09 05:21:38;;;;;;;67.00;61.90;;;;;;;8.80;100.00;102593.33;1865068;75;85461;-68
2022/05/09 05:27:26;;;;;;;65.77;60.73;;;;;;;8.75;100.00;102591.78;1909825;74;86667;-69
2022/05/09 05:33:12;;;;;;;66.57;61.50;;;;;;;9.12;100.00;102584.59;1927445;71;39686;-69
2022/05/09 05:38:57;;;;;;;66.87;61.60;;;;;;;9.26;100.00;102585.27;1896431;74;86777;-69
2022/05/09 05:44:41;;;;;;;69.63;64.23;;;;;;;9.45;100.00;102584.16;1877971;74;86319;-68
2022/05/09 05:50:28;;;;;;;68.03;62.73;;;;;;;9.75;100.00;102573.03;1913560;74;86307;-70
2022/05/09 05:56:15;;;;;;;64.83;60.07;;;;;;;9.97;100.00;102578.30;1970642;71;39709;-70
2022/05/09 06:01:59;;;;;;;68.67;64.03;;;;;;;10.09;100.00;102583.89;1826330;76;85877;-69
2022/05/09 06:07:46;;;;;;;68.20;63.53;;;;;;;10.08;100.00;102589.67;1888601;73;86785;-69
2022/05/09 06:13:31;;;;;;;66.80;61.87;;;;;;;10.20;100.00;102568.34;1910811;74;86474;-68
2022/05/09 06:19:15;;;;;;;68.57;63.77;;;;;;;10.22;100.00;102572.58;1980419;71;39700;-70
2022/05/09 06:25:05;;;;;;;65.07;60.80;;;;;;;10.44;100.00;102561.68;1832412;76;86846;-69
2022/05/09 06:30:51;;;;;;;65.03;60.70;;;;;;;10.61;100.00;102547.34;1885427;74;86531;-69
2022/05/09 06:36:43;;;;;;;64.70;60.03;;;;;;;10.75;100.00;102533.48;1888872;75;86597;-69
2022/05/09 06:42:28;;;;;;;64.17;60.00;;;;;;;10.74;100.00;102526.23;1914656;72;86483;-68
2022/05/09 06:48:13;;;;;;;58.93;55.13;;;;;;;10.95;100.00;102512.23;1986226;71;39594;-69
2022/05/09 06:53:57;;;;;;;60.00;56.23;;;;;;;11.23;100.00;102503.03;1848367;76;85386;-70
2022/05/09 06:59:41;;;;;;;58.70;54.90;;;;;;;11.35;100.00;102506.05;1882509;75;86233;-70
2022/05/09 07:05:29;;;;;;;48.80;45.87;;;;;;;11.43;100.00;102500.61;1912645;74;86499;-69
2022/05/09 07:11:15;;;;;;;41.53;39.13;;;;;;;11.56;100.00;102499.45;1976067;71;39583;-68
2022/05/09 07:17:01;;;;;;;37.67;35.37;;;;;;;11.67;100.00;102495.77;1893484;74;86689;-68
2022/05/09 07:22:45;;;;;;;38.83;36.67;;;;;;;11.92;100.00;102484.23;1902562;74;86529;-69
2022/05/09 07:28:32;;;;;;;33.73;31.73;;;;;;;12.05;100.00;102482.48;1808441;77;85989;-68
2022/05/09 07:34:17;;;;;;;32.67;30.77;;;;;;;12.39;100.00;102477.13;1980312;71;39651;-73
2022/05/09 07:40:03;;;;;;;29.33;27.60;;;;;;;12.68;100.00;102469.42;1883833;74;86632;-69
2022/05/09 07:45:49;;;;;;;29.03;27.50;;;;;;;13.12;100.00;102471.64;1871404;74;86394;-69
2022/05/09 07:51:37;;;;;;;26.37;25.03;;;;;;;13.49;100.00;102452.17;1870070;75;86298;-69
2022/05/09 07:57:21;;;;;;;21.70;20.50;;;;;;;14.09;100.00;102454.04;1926761;72;39528;-69
2022/05/09 08:03:05;;;;;;;19.70;18.50;;;;;;;14.34;100.00;102442.16;1851032;76;86278;-68
2022/05/09 08:08:51;;;;;;;17.43;16.30;;;;;;;14.86;100.00;102445.48;1795834;78;86163;-68
2022/05/09 08:14:36;;;;;;;16.00;15.10;;;;;;;15.09;100.00;102449.74;1867543;75;86263;-69
2022/05/09 08:20:22;;;;;;;13.70;12.90;;;;;;;15.51;100.00;102444.79;1977193;71;39723;-69
2022/05/09 08:26:15;;;;;;;12.90;12.10;;;;;;;15.98;100.00;102439.42;1929969;71;39415;-67
2022/05/09 08:31:59;;;;;;;13.30;12.50;;;;;;;16.17;100.00;102427.91;1958691;72;86272;-69
2022/05/09 08:37:45;;;;;;;12.30;11.60;;;;;;;16.75;100.00;102419.28;1914165;73;85636;-67
2022/05/09 08:46:58;;;;;;;12.80;11.90;;;;;;;17.02;100.00;102397.23;1872643;75;86449;-70
2022/05/09 08:49:38;;;;;;;12.73;11.70;;;;;;;17.01;100.00;102391.34;1849317;75;938079;-70
2022/05/09 08:55:45;;;;;;;14.37;13.40;;;;;;;17.48;100.00;102382.81;1881006;75;86430;-69
2022/05/09 09:01:34;;;;;;;13.77;12.67;;;;;;;18.05;100.00;102371.59;1909639;72;86174;-69
2022/05/09 09:07:36;;;;;;;13.37;12.40;;;;;;;18.26;100.00;102369.37;1948186;71;39696;-70
2022/05/09 09:10:14;;;;;;;14.00;12.83;;;;;;;18.30;100.00;102371.86;1883941;74;938746;-70
2022/05/09 09:16:11;;;;;;;14.00;13.20;;;;;;;18.57;100.00;102357.16;1847408;76;86483;-70
2022/05/09 09:22:00;;;;;;;14.63;13.53;;;;;;;18.72;100.00;102356.12;1832407;76;86534;-70
2022/05/09 09:24:41;;;;;;;15.37;14.27;;;;;;;18.69;100.00;102356.73;1782794;77;939005;-70
2022/05/09 09:30:29;;;;;;;15.33;14.17;;;;;;;18.71;100.00;102367.10;1923037;73;86539;-69
2022/05/09 09:36:15;;;;;;;15.60;14.40;;;;;;;18.74;100.00;102372.16;1978933;71;39610;-70
2022/05/09 09:42:03;;;;;;;16.23;14.77;;;;;;;19.15;100.00;102369.55;1852335;76;86559;-70
2022/05/09 09:47:49;;;;;;;15.97;14.60;;;;;;;19.56;100.00;102367.73;1906708;73;86682;-69
2022/05/09 09:53:39;;;;;;;15.93;14.73;;;;;;;19.42;100.00;102367.69;1852532;74;86594;-69
2022/05/09 09:59:26;;;;;;;15.97;14.77;;;;;;;19.55;100.00;102359.84;1932356;71;86257;-70
2022/05/09 10:05:21;;;;;;;15.77;14.47;;;;;;;19.86;100.00;102343.20;1986004;71;40059;-70
2022/05/09 10:11:09;;;;;;;16.03;14.83;;;;;;;19.78;100.00;102338.28;1838810;76;86158;-70
2022/05/09 10:16:57;;;;;;;18.37;16.40;;;;;;;19.73;100.00;102334.71;1882013;74;86559;-70
2022/05/09 10:28:49;;;;;;;15.77;14.57;;;;;;;19.97;100.00;102314.23;1868805;75;86580;-70
2022/05/09 10:34:41;;;;;;;16.57;15.17;;;;;;;20.32;100.00;102300.78;1800741;77;86372;-70
2022/05/09 10:40:31;;;;;;;16.03;14.73;;;;;;;20.31;100.00;102308.17;1943295;73;86659;-70
2022/05/09 10:43:05;;;;;;;16.20;14.87;;;;;;;20.16;100.00;102312.69;1867621;73;937975;-70
2022/05/09 10:45:44;;;;;;;16.03;14.93;;;;;;;20.14;100.00;102307.95;1863046;75;940944;-70
2022/05/09 10:48:15;;;;;;;16.40;15.30;;;;;;;20.25;100.00;102303.75;1852263;74;941003;-70
2022/05/09 10:50:49;;;;;;;16.07;14.67;;;;;;;20.34;100.00;102301.89;1862324;76;939066;-68
2022/05/09 10:53:23;;;;;;;15.57;14.37;;;;;;;20.35;100.00;102295.94;1847790;75;941069;-69
2022/05/09 10:59:11;;;;;;;16.00;14.70;;;;;;;20.68;100.00;102278.80;1954823;72;86258;-71
2022/05/09 11:04:59;;;;;;;17.13;15.80;;;;;;;20.78;100.00;102275.17;1875542;74;86266;-70
2022/05/09 11:10:49;;;;;;;16.47;15.47;;;;;;;20.81;100.00;102258.98;1868834;75;86598;-70
2022/05/09 11:13:26;;;;;;;17.47;16.03;;;;;;;20.71;100.00;102262.66;1831429;75;939005;-71
2022/05/09 11:16:04;;;;;;;17.20;15.80;;;;;;;21.09;100.00;102258.86;1831976;76;939069;-69
2022/05/09 11:19:25;;;;;;;16.47;15.30;;;;;;;20.94;100.00;102262.91;1850164;75;940972;-69
2022/05/09 11:21:59;;;;;;;17.60;16.20;;;;;;;20.87;100.00;102258.29;1866292;75;938915;-71
2022/05/09 11:27:59;;;;;;;16.53;15.23;;;;;;;20.70;100.00;102258.98;1886363;74;86718;-70
2022/05/09 11:33:58;;;;;;;16.90;15.60;;;;;;;20.92;100.00;102246.03;1872985;74;86060;-70
2022/05/09 11:39:49;;;;;;;17.60;16.27;;;;;;;21.20;100.00;102225.80;1882969;75;86162;-70
2022/05/09 11:45:17;;;;;;;17.05;15.75;;;;;;;21.19;100.00;102230.34;1844877;75;941017;-71
2022/05/09 11:51:06;;;;;;;16.53;15.33;;;;;;;21.48;100.00;102215.72;1840283;76;85793;-71
2022/05/09 11:56:52;;;;;;;17.77;16.43;;;;;;;21.38;100.00;102212.59;1904567;74;86093;-69
2022/05/09 12:02:50;;;;;;;16.13;14.90;;;;;;;21.47;100.00;102207.81;1806453;77;86287;-71
2022/05/09 12:09:01;;;;;;;15.17;14.13;;;;;;;21.39;100.00;102204.95;1832782;76;86332;-70
2022/05/09 12:14:52;;;;;;;18.83;17.13;;;;;;;21.23;100.00;102194.62;1881950;73;86377;-70
2022/05/09 12:21:16;;;;;;;17.27;16.13;;;;;;;21.35;100.00;102188.61;1879613;74;86384;-69
2022/05/09 12:27:42;;;;;;;16.30;14.97;;;;;;;21.09;100.00;102193.30;1808834;78;86285;-68
2022/05/09 12:33:56;;;;;;;15.57;14.47;;;;;;;;;;1893284;74;86757;-69
2022/05/09 12:39:48;;;;;;;15.80;14.33;;;;;;;21.44;100.00;102170.28;1874964;75;85463;-68
2022/05/09 12:46:01;;;;;;;14.57;13.23;;;;;;;21.27;100.00;102167.38;1848412;76;86331;-67
2022/05/09 12:51:48;;;;;;;14.77;13.60;;;;;;;21.33;100.00;102159.86;1871903;75;86673;-67
2022/05/09 12:54:21;;;;;;;15.70;14.47;;;;;;;21.25;100.00;102166.89;1820989;75;938090;-68
2022/05/09 13:00:12;;;;;;;14.70;13.60;;;;;;;21.29;100.00;102162.25;1827658;75;86215;-68
2022/05/09 13:06:00;;;;;;;15.07;13.97;;;;;;;21.21;100.00;102153.16;1816308;76;86746;-66
2022/05/09 13:11:56;;;;;;;14.53;13.40;;;;;;;21.38;100.00;102150.40;1807733;78;86218;-68
2022/05/09 13:14:33;;;;;;;15.17;14.07;;;;;;;21.36;100.00;102149.88;1753570;79;938955;-66
2022/05/09 13:20:22;;;;;;;15.37;14.27;;;;;;;21.43;100.00;102140.94;1940013;71;39530;-68
2022/05/09 13:26:12;;;;;;;14.63;13.70;;;;;;;21.37;100.00;102126.11;1810039;78;86365;-68
2022/05/09 13:32:01;;;;;;;14.73;13.70;;;;;;;21.43;100.00;102111.25;1842219;76;85439;-67
2022/05/09 13:37:52;;;;;;;15.10;14.25;;;;;;;21.52;100.00;102097.98;1870550;75;86322;-67
2022/05/09 13:43:40;;;;;;;14.50;13.00;;;;;;;21.44;100.00;102106.66;1874596;75;86539;-68
2022/05/09 13:49:26;;;;;;;15.73;14.37;;;;;;;21.45;100.00;102106.92;1922920;74;86332;-69
2022/05/09 13:55:30;;;;;;;14.53;13.53;;;;;;;21.72;100.00;102112.90;1977892;71;39699;-68
2022/05/09 14:01:17;;;;;;;14.40;13.30;;;;;;;22.30;100.00;102094.05;1983565;71;39700;-68
2022/05/09 14:07:37;;;;;;;13.88;13.08;;;;;;;22.01;100.00;102092.48;1952320;72;86440;-68
2022/05/09 14:12:57;;;;;;;15.75;14.50;;;;;;;21.95;100.00;102078.27;1877580;75;86934;-68
2022/05/09 14:22:04;;;;;;;14.37;13.53;;;;;;;22.36;100.00;102059.33;1837050;76;86593;-67
2022/05/09 14:33:58;;;;;;;14.50;13.55;;;;;;;22.66;100.00;102042.09;1828328;76;85733;-66
2022/05/09 14:39:48;;;;;;;14.68;13.72;;;;;;;22.41;100.00;102034.51;1872422;75;86680;-68
2022/05/09 14:45:36;;;;;;;13.95;13.15;;;;;;;22.02;100.00;102052.55;1808140;77;86420;-67
2022/05/09 14:51:23;;;;;;;14.25;13.35;;;;;;;22.09;100.00;102022.31;1922648;74;86340;-67
2022/05/09 14:57:26;;;;;;;13.77;13.07;;;;;;;22.38;100.00;102023.03;1764977;78;86272;-68
2022/05/09 15:03:21;;;;;;;13.90;13.10;;;;;;;22.36;100.00;102016.28;1945374;71;39478;-68
2022/05/09 15:09:06;;;;;;;14.40;13.50;;;;;;;22.33;100.00;102015.55;1831237;76;86398;-67
2022/05/09 15:14:53;;;;;;;15.38;14.18;;;;;;;22.20;100.00;102017.41;1807267;78;86612;-68
2022/05/09 15:20:40;;;;;;;13.73;12.90;;;;;;;22.20;100.00;102006.08;1867951;75;86354;-66
2022/05/09 15:26:27;;;;;;;14.60;13.70;;;;;;;22.07;100.00;101992.95;1919099;72;86353;-67
2022/05/09 15:32:15;;;;;;;13.85;13.05;;;;;;;22.05;100.00;101983.11;1985734;71;39644;-68
2022/05/09 15:38:07;;;;;;;14.23;13.33;;;;;;;22.15;100.00;101989.84;1838884;76;86199;-69
2022/05/09 15:43:50;;;;;;;15.78;14.68;;;;;;;22.20;100.00;101976.94;1884337;74;86700;-69
2022/05/09 15:49:37;;;;;;;14.93;13.93;;;;;;;22.32;100.00;101985.56;1808922;77;86479;-68
2022/05/09 15:58:33;;;;;;;13.90;13.10;;;;;;;22.47;100.00;101969.43;1904435;74;86653;-67
2022/05/09 16:01:05;;;;;;;13.83;13.00;;;;;;;22.35;100.00;101982.05;1816523;75;938661;-68
2022/05/09 16:03:36;;;;;;;13.25;12.55;;;;;;;22.33;100.00;101979.32;1802254;77;940877;-67
2022/05/09 16:11:46;;;;;;;14.87;13.83;;;;;;;22.20;100.00;101965.04;1746729;78;938792;-69
2022/05/09 16:14:19;;;;;;;14.20;13.40;;;;;;;22.20;100.00;101969.86;1758572;79;940823;-70
2022/05/09 16:20:14;;;;;;;14.00;12.80;;;;;;;22.21;100.00;101970.92;1961136;72;86289;-69
2022/05/09 16:26:00;;;;;;;12.83;12.13;;;;;;;22.10;100.00;101970.21;1848637;76;85618;-70
2022/05/09 16:31:46;;;;;;;13.30;12.60;;;;;;;21.90;100.00;101973.13;1883764;73;86435;-71
2022/05/09 16:37:33;;;;;;;13.43;12.73;;;;;;;21.84;100.00;101961.73;1806441;76;86752;-69
2022/05/09 16:43:22;;;;;;;13.93;13.00;;;;;;;21.86;100.00;101959.41;1981641;71;39556;-69
2022/05/09 16:49:07;;;;;;;13.50;12.80;;;;;;;21.72;100.00;101968.07;1976859;71;85913;-69
2022/05/09 16:54:51;;;;;;;13.70;12.88;;;;;;;21.71;100.00;101954.25;1800716;78;86163;-69
2022/05/09 17:00:34;;;;;;;15.00;14.07;;;;;;;21.63;100.00;101941.78;1798953;77;85514;-67
2022/05/09 17:06:20;;;;;;;14.58;13.68;;;;;;;21.59;100.00;101935.14;1948701;71;39402;-72
2022/05/09 17:12:04;;;;;;;14.15;13.45;;;;;;;21.56;100.00;101932.16;1891421;74;86550;-72
2022/05/09 17:17:51;;;;;;;14.35;13.62;;;;;;;21.53;100.00;101925.15;1800933;78;86404;-73
2022/05/09 17:23:37;;;;;;;14.50;13.58;;;;;;;21.54;100.00;101923.16;1868953;76;85684;-72
2022/05/09 17:29:22;;;;;;;14.65;13.72;;;;;;;21.43;100.00;101914.77;1975265;71;39571;-72
2022/05/09 17:37:15;;;;;;;16.12;15.03;;;;;;;21.28;100.00;101918.91;1816771;75;86454;-74
2022/05/09 17:40:58;;;;;;;17.20;16.00;;;;;;;21.25;100.00;101923.83;1886497;74;85580;-73
2022/05/09 17:46:54;;;;;;;15.73;14.77;;;;;;;21.11;100.00;101923.10;1883746;73;86390;-73
2022/05/09 17:52:41;;;;;;;14.93;14.03;;;;;;;21.01;100.00;101926.27;1876630;75;86177;-72
2022/05/09 17:58:28;;;;;;;15.90;14.90;;;;;;;20.87;100.00;101917.92;1912016;74;86220;-73
2022/05/09 18:04:13;;;;;;;16.57;15.57;;;;;;;20.80;100.00;101911.33;1987471;71;39447;-72
2022/05/09 18:09:59;;;;;;;16.40;15.27;;;;;;;20.71;100.00;101914.70;1832567;76;86309;-73
2022/05/09 18:15:49;;;;;;;15.73;14.80;;;;;;;20.68;100.00;101916.78;1869202;75;85554;-72
2022/05/09 18:21:38;;;;;;;16.97;15.87;;;;;;;20.52;100.00;101916.15;1867978;76;86358;-72
2022/05/09 18:27:24;;;;;;;16.00;14.90;;;;;;;20.40;100.00;101913.95;1914582;74;86305;-73
2022/05/09 18:33:10;;;;;;;16.53;15.43;;;;;;;20.38;100.00;101911.45;1891163;74;85441;-73
2022/05/09 18:38:59;;;;;;;17.03;16.00;;;;;;;20.28;100.00;101907.45;1881445;75;86552;-74
2022/05/09 18:44:45;;;;;;;19.70;18.40;;;;;;;20.16;100.00;101889.47;1886603;74;85516;-72
2022/05/09 18:56:31;;;;;;;20.97;19.57;;;;;;;19.79;100.00;101896.41;1835940;76;86314;-72
2022/05/09 19:02:15;;;;;;;21.30;19.70;;;;;;;19.71;100.00;101903.67;1986359;70;39541;-70
2022/05/09 19:08:03;;;;;;;22.50;21.00;;;;;;;19.43;100.00;101900.70;1847935;76;86127;-73
2022/05/09 19:13:51;;;;;;;22.70;20.97;;;;;;;19.43;100.00;101905.77;1882889;74;86274;-74
2022/05/09 19:19:37;;;;;;;23.47;21.97;;;;;;;19.38;100.00;101906.45;1858348;76;86423;-74
2022/05/09 19:28:44;;;;;;;24.83;23.13;;;;;;;19.08;100.00;101912.23;1920111;72;86158;-77
2022/05/09 19:34:33;;;;;;;25.13;23.43;;;;;;;18.93;100.00;101897.08;1804612;78;86273;-71
2022/05/09 19:40:20;;;;;;;26.33;24.43;;;;;;;18.93;100.00;101898.48;1977609;71;39402;-76
2022/05/09 19:46:08;;;;;;;25.87;24.00;;;;;;;18.78;100.00;101898.27;1843039;76;86172;-73
2022/05/09 19:57:55;;;;;;;26.23;24.23;;;;;;;18.65;100.00;101902.74;1884497;74;86488;-74
2022/05/09 20:03:45;;;;;;;26.50;24.60;;;;;;;18.55;100.00;101906.36;1831944;77;85527;-74
2022/05/09 20:09:31;;;;;;;26.43;24.53;;;;;;;18.60;100.00;101905.69;1949721;71;86352;-72
2022/05/09 20:15:17;;;;;;;27.63;25.73;;;;;;;18.44;100.00;101902.88;1974203;71;39580;-71
2022/05/09 20:21:03;;;;;;;28.33;26.33;;;;;;;18.40;100.00;101895.41;1830616;76;86053;-72
2022/05/09 20:32:49;;;;;;;30.13;28.03;;;;;;;18.28;100.00;101879.59;1885772;73;86158;-71
2022/05/09 20:38:35;;;;;;;29.40;27.07;;;;;;;18.26;100.00;101881.90;1873608;75;86627;-73
2022/05/09 20:44:20;;;;;;;28.70;26.77;;;;;;;18.19;100.00;101873.86;1986192;71;39760;-70
2022/05/09 20:50:07;;;;;;;27.93;26.03;;;;;;;18.13;100.00;101865.28;1816354;76;86588;-73
2022/05/09 20:55:55;;;;;;;26.53;24.70;;;;;;;18.10;100.00;101869.53;1809483;78;86395;-73
2022/05/09 21:01:38;;;;;;;25.17;23.47;;;;;;;18.09;100.00;101861.42;1808562;77;86463;-71
2022/05/09 21:07:25;;;;;;;24.20;22.40;;;;;;;18.10;100.00;101852.66;1817556;78;86416;-72
2022/05/09 21:13:10;;;;;;;23.10;21.50;;;;;;;18.06;100.00;101848.80;1946713;71;39455;-74
2022/05/09 21:18:54;;;;;;;23.93;22.20;;;;;;;18.08;100.00;101845.69;1882758;74;86384;-72
2022/05/09 21:24:39;;;;;;;24.33;22.63;;;;;;;18.18;100.00;101835.66;1831142;77;86427;-73
2022/05/09 21:30:27;;;;;;;23.90;22.10;;;;;;;17.98;100.00;101832.66;1926396;71;86393;-71
2022/05/09 21:36:15;;;;;;;24.27;22.57;;;;;;;17.85;100.00;101825.61;1926776;70;39795;-71
2022/05/09 21:42:02;;;;;;;23.07;21.40;;;;;;;17.84;100.00;101821.96;1840138;75;86598;-72
2022/05/09 21:47:48;;;;;;;23.57;21.90;;;;;;;17.81;100.00;101816.97;1899519;73;85398;-71
2022/05/09 21:53:32;;;;;;;23.50;21.93;;;;;;;17.81;100.00;101803.48;1799246;77;86667;-71
2022/05/09 21:59:17;;;;;;;23.70;21.87;;;;;;;17.73;100.00;101789.02;1984225;71;39505;-71
2022/05/09 22:05:01;;;;;;;24.03;22.23;;;;;;;17.70;100.00;101779.81;1839085;75;86821;-72
2022/05/09 22:10:46;;;;;;;23.80;22.23;;;;;;;17.72;100.00;101777.52;1907077;73;86363;-72
2022/05/09 22:16:30;;;;;;;23.90;22.07;;;;;;;17.73;100.00;101772.73;1937242;73;86319;-72
2022/05/09 22:22:17;;;;;;;24.87;23.07;;;;;;;17.68;100.00;101775.06;1946939;71;39519;-71
2022/05/09 22:28:02;;;;;;;25.87;23.93;;;;;;;17.68;100.00;101782.09;1951813;72;86473;-71
2022/05/09 22:33:47;;;;;;;25.67;23.80;;;;;;;17.60;100.00;101775.78;1894088;73;86477;-71
2022/05/09 22:42:39;;;;;;;25.77;23.97;;;;;;;17.60;100.00;101756.12;1951447;71;86323;-71
2022/05/09 22:45:14;;;;;;;25.40;23.50;;;;;;;17.58;100.00;101763.20;1887244;73;938731;-71
2022/05/09 22:47:46;;;;;;;25.47;23.57;;;;;;;17.55;100.00;101764.61;1903152;74;938931;-71
2022/05/09 22:50:17;;;;;;;26.17;24.37;;;;;;;17.47;100.00;101763.92;1885750;74;940854;-71
2022/05/09 22:52:48;;;;;;;27.57;25.57;;;;;;;17.48;100.00;101756.33;1898387;74;939142;-71
2022/05/09 22:58:36;;;;;;;27.20;25.20;;;;;;;17.34;100.00;101756.86;1808278;77;86102;-71
2022/05/09 23:04:23;;;;;;;28.40;26.60;;;;;;;17.36;100.00;101747.00;1984104;71;39599;-72
2022/05/09 23:10:09;;;;;;;28.63;26.57;;;;;;;17.29;100.00;101747.39;1813576;78;86078;-71
2022/05/09 23:15:56;;;;;;;27.13;25.30;;;;;;;17.39;100.00;101737.95;1884541;75;86132;-72
2022/05/09 23:21:41;;;;;;;27.67;25.80;;;;;;;17.34;100.00;101735.23;1872480;75;85417;-71
2022/05/09 23:27:26;;;;;;;28.33;26.13;;;;;;;17.32;100.00;101719.84;1928717;73;86091;-72
2022/05/09 23:33:13;;;;;;;29.53;27.33;;;;;;;17.23;100.00;101716.91;1977239;71;39542;-71
2022/05/09 23:38:57;;;;;;;29.80;27.57;;;;;;;17.32;100.00;101711.42;1843161;76;86161;-72
2022/05/09 23:44:43;;;;;;;30.63;28.50;;;;;;;17.16;100.00;101715.06;1880005;75;86417;-71
2022/05/09 23:53:37;;;;;;;29.83;28.03;;;;;;;17.25;100.00;101701.98;1964224;70;86744;-73
2022/05/09 23:59:21;;;;;;;30.10;28.00;;;;;;;17.23;100.00;101707.09;1978991;70;39573;-71
